Terminal Aerodrome Forecast
Issued by NWS

Home | Current Version | Previous Version | Text Only | Print | Product List | Glossary On
Versions: 1 2 3 4 5 6 7 8 9 10 11 12 13 14 15 16 17 18
000
FTUS43 KAPX 160500
TAFPLN
TAF
KPLN 160538Z 1606/1706 00000KT P6SM SCT025 BKN050
      TEMPO 1606/1610 BKN025
     FM161000 00000KT P6SM FEW035
     FM161600 26009G15KT P6SM FEW040
     FM170100 21003KT P6SM FEW080 BKN100=

USA.gov is the U.S. government's official web portal to all federal, state and local government web resources and services.